Skip Navigation LinksHome page > Weather > Current weather Skip Navigation Links

Current Weather

Honolulu Intl, Honolulu

For information only: do not use for flight planning or navigation.
Latest weather
Observation time Friday, February 12, 2016 12:04 PM HST
Local time Friday, February 12, 2016 12:17 PM HST
Flight conditions Visual Meteorological Conditions
Winds
Wind direction Southeast (130°)
Wind speed 16 mph
Visibility 10 mi.
Sky condition
Ceiling unlimited
Cloud layer few clouds 4,200 ft.
Temperature 82°F
Dewpoint 64°F
Altimeter 30.01 in.Hg
Derived measurements
Relative humidity 55%
Heat index 84°F
Density altitude 1690 ft.
METAR PHNL 122204Z 13014KT 10SM FEW042 28/18 A3001

Settings

Location code

InnerDrive.Weather 4.0.5722.1 Release CLR 4.0.30319.34209
Copyright ©2015 Inner Drive Technology. All rights reserved. Portions Copyright ©1986-2015 David Braverman.

Find weather

Site navigation


Skip Navigation Links

Place info

Page info

PayPal - The safer, easier way to pay online!

Return home.

Copyright ©2016 Inner Drive Technology. Purveyors of fine, hand-crafted computer software. Page printed 2016-02-12T22:17:17 UTC.